createdAt,value
2019-04-16T00:00:56.581Z,29.70
2019-04-16T00:03:26.923Z,29.70
2019-04-16T00:06:08.114Z,29.70
2019-04-16T00:08:42.745Z,29.70
2019-04-16T00:11:22.388Z,29.70
2019-04-16T00:14:03.002Z,29.70
2019-04-16T00:16:31.431Z,29.70
2019-04-16T00:19:05.621Z,29.70
2019-04-16T00:21:47.782Z,29.70
2019-04-16T00:24:25.500Z,29.70
2019-04-16T00:26:59.332Z,29.70
2019-04-16T00:29:33.681Z,29.70
2019-04-16T00:32:25.857Z,29.70
2019-04-16T00:34:55.545Z,29.70
2019-04-16T00:37:27.270Z,29.70
2019-04-16T00:40:01.449Z,29.70
2019-04-16T00:42:32.593Z,29.70
2019-04-16T00:45:06.149Z,29.70
2019-04-16T00:47:36.815Z,29.70
2019-04-16T00:50:07.398Z,29.70
2019-04-16T00:52:40.898Z,29.80
2019-04-16T00:55:13.654Z,29.70
2019-04-16T00:57:48.384Z,29.70
2019-04-16T01:00:18.272Z,29.70
2019-04-16T01:02:51.031Z,29.80
2019-04-16T01:05:22.908Z,29.70
2019-04-16T01:07:53.590Z,29.70
2019-04-16T01:10:26.815Z,29.80
2019-04-16T01:12:59.258Z,29.60
2019-04-16T01:15:32.051Z,29.60
2019-04-16T01:18:04.616Z,29.60
2019-04-16T01:20:37.319Z,29.70
2019-04-16T01:23:07.869Z,29.70
2019-04-16T01:25:42.962Z,29.60
2019-04-16T01:28:16.867Z,29.60
2019-04-16T01:31:01.254Z,29.60
2019-04-16T01:33:48.648Z,29.60
2019-04-16T01:36:38.303Z,29.60
2019-04-16T01:39:17.649Z,29.60
2019-04-16T01:41:45.741Z,29.60
2019-04-16T01:44:16.550Z,29.60
2019-04-16T01:46:48.702Z,29.60
2019-04-16T01:49:19.674Z,29.60
2019-04-16T01:51:50.310Z,29.60
2019-04-16T01:54:22.791Z,29.60
2019-04-16T01:56:53.211Z,29.60
2019-04-16T01:59:26.603Z,29.60
2019-04-16T02:01:57.960Z,29.60
2019-04-16T02:04:28.363Z,29.70
2019-04-16T02:06:59.323Z,29.60
2019-04-16T02:09:34.697Z,29.70
2019-04-16T02:12:05.295Z,29.60
2019-04-16T02:14:35.627Z,29.60
2019-04-16T02:17:08.155Z,29.60
2019-04-16T02:19:38.534Z,29.60
2019-04-16T02:22:12.543Z,29.60
2019-04-16T02:24:41.748Z,29.70
2019-04-16T02:27:12.551Z,29.60
2019-04-16T02:29:43.182Z,29.70
2019-04-16T02:32:14.214Z,29.70
2019-04-16T02:34:45.278Z,29.60
2019-04-16T02:37:20.727Z,29.70
2019-04-16T02:39:51.971Z,29.70
2019-04-16T02:42:23.319Z,29.70
2019-04-16T02:44:57.614Z,29.60
2019-04-16T02:47:31.792Z,29.70
2019-04-16T02:50:05.810Z,29.70
2019-04-16T02:52:50.307Z,29.60
2019-04-16T02:55:44.178Z,29.70
2019-04-16T02:58:24.553Z,29.70
2019-04-16T03:01:29.266Z,29.60
2019-04-16T03:04:07.631Z,29.70
2019-04-16T03:06:43.785Z,29.70
2019-04-16T03:09:16.749Z,29.70
2019-04-16T03:11:48.975Z,29.70
2019-04-16T03:14:19.396Z,29.70
2019-04-16T03:17:10.658Z,29.70
2019-04-16T03:19:43.058Z,29.70
2019-04-16T03:22:15.182Z,29.70
2019-04-16T03:24:46.339Z,29.70
2019-04-16T03:27:21.750Z,29.70
2019-04-16T03:29:51.261Z,30.10
2019-04-16T03:32:23.316Z,29.70
2019-04-16T03:34:55.834Z,29.70
2019-04-16T03:37:30.286Z,29.70
2019-04-16T03:40:15.261Z,29.70
2019-04-16T03:42:37.075Z,29.70
2019-04-16T03:45:09.843Z,29.70
2019-04-16T03:47:41.392Z,29.60
2019-04-16T03:50:12.348Z,29.60
2019-04-16T03:52:45.715Z,29.70
2019-04-16T03:55:15.016Z,29.70
2019-04-16T03:57:46.918Z,29.80
2019-04-16T04:00:17.899Z,29.70
2019-04-16T04:02:54.056Z,29.70
2019-04-16T04:05:24.907Z,29.70
2019-04-16T04:07:55.702Z,29.70
2019-04-16T04:10:30.794Z,29.70
2019-04-16T04:13:00.493Z,29.70
2019-04-16T04:15:31.418Z,29.70
2019-04-16T04:18:02.175Z,29.70
2019-04-16T04:20:37.191Z,29.70
2019-04-16T04:23:07.910Z,29.70
2019-04-16T04:25:38.598Z,29.70
2019-04-16T04:28:18.486Z,29.80
2019-04-16T04:30:50.131Z,29.70
2019-04-16T04:33:41.572Z,29.70
2019-04-16T04:36:18.716Z,29.70
2019-04-16T04:38:48.385Z,29.70
2019-04-16T04:41:23.042Z,29.70
2019-04-16T04:43:52.700Z,29.70
2019-04-16T04:46:24.022Z,29.70
2019-04-16T04:49:00.052Z,29.70
2019-04-16T04:51:29.028Z,29.70
2019-04-16T04:54:05.922Z,29.80
2019-04-16T04:56:36.840Z,29.70
2019-04-16T04:59:08.462Z,29.70
2019-04-16T05:01:42.742Z,29.70
2019-04-16T05:04:28.453Z,29.80
2019-04-16T05:07:04.894Z,29.70
2019-04-16T05:09:38.785Z,29.70
2019-04-16T05:12:09.229Z,29.70
2019-04-16T05:14:58.683Z,29.70
2019-04-16T05:17:30.055Z,29.80
2019-04-16T05:20:01.985Z,29.70
2019-04-16T05:22:34.498Z,29.70
2019-04-16T05:25:06.062Z,29.70
2019-04-16T05:27:40.285Z,29.70
2019-04-16T05:30:09.075Z,29.70
2019-04-16T05:32:39.644Z,29.60
2019-04-16T05:35:11.194Z,29.60
2019-04-16T05:37:42.447Z,29.60
2019-04-16T05:40:16.421Z,29.60
2019-04-16T05:42:52.704Z,29.60
2019-04-16T05:45:24.070Z,29.60
2019-04-16T05:47:56.567Z,29.60
2019-04-16T05:50:30.749Z,29.60
2019-04-16T05:53:01.441Z,30.20
2019-04-16T05:55:57.392Z,30.50
2019-04-16T05:58:30.777Z,30.90
2019-04-16T06:01:13.639Z,30.20
2019-04-16T06:03:44.013Z,30.80
2019-04-16T06:06:14.686Z,30.10
2019-04-16T06:08:46.226Z,30.00
2019-04-16T06:11:36.918Z,30.60
2019-04-16T06:14:26.224Z,30.40
2019-04-16T06:17:41.125Z,30.60
2019-04-16T06:20:31.122Z,31.00
2019-04-16T06:26:44.441Z,31.20
2019-04-16T06:29:33.193Z,31.30
2019-04-16T06:32:29.310Z,31.60
2019-04-16T06:38:45.116Z,32.00
2019-04-16T06:42:55.128Z,31.60
2019-04-16T06:45:09.530Z,31.60
2019-04-16T06:47:52.550Z,31.30
2019-04-16T06:50:57.058Z,31.60
2019-04-16T06:53:56.692Z,32.30
2019-04-16T06:56:40.349Z,31.60
2019-04-16T06:59:30.703Z,31.50
2019-04-16T07:02:29.425Z,31.20
2019-04-16T07:05:17.483Z,31.20
2019-04-16T07:08:18.411Z,31.10
2019-04-16T07:10:55.785Z,30.80
2019-04-16T07:13:29.258Z,30.60
2019-04-16T07:16:02.208Z,30.50
2019-04-16T07:18:35.603Z,30.30
2019-04-16T07:21:09.474Z,30.30
2019-04-16T07:23:39.878Z,30.30
2019-04-16T07:26:14.611Z,30.30
2019-04-16T07:28:51.096Z,30.30
2019-04-16T07:31:39.874Z,30.20
2019-04-16T07:34:30.163Z,30.20
2019-04-16T07:37:23.744Z,30.20
2019-04-16T07:40:08.906Z,30.20
2019-04-16T07:42:52.172Z,30.20
2019-04-16T07:45:39.406Z,30.10
2019-04-16T07:48:22.788Z,29.70
2019-04-16T07:51:18.118Z,30.10
2019-04-16T07:54:21.239Z,30.10
2019-04-16T07:56:50.321Z,30.10
2019-04-16T07:59:31.975Z,30.10
2019-04-16T08:02:01.014Z,30.10
2019-04-16T08:04:36.440Z,30.00
2019-04-16T08:07:13.162Z,30.00
2019-04-16T08:09:45.924Z,30.00
2019-04-16T08:12:29.836Z,30.00
2019-04-16T08:14:55.258Z,30.00
2019-04-16T08:17:30.979Z,30.00
2019-04-16T08:20:10.890Z,30.00
2019-04-16T08:22:48.228Z,30.00
2019-04-16T08:25:33.631Z,30.00
2019-04-16T08:28:06.828Z,30.10
2019-04-16T08:30:41.886Z,30.00
2019-04-16T08:33:16.271Z,30.00
2019-04-16T08:35:48.804Z,30.00
2019-04-16T08:38:26.382Z,30.00
2019-04-16T08:40:57.225Z,30.00
2019-04-16T08:43:34.506Z,30.00
2019-04-16T08:46:10.010Z,30.00
2019-04-16T08:48:41.186Z,30.00
2019-04-16T08:51:29.225Z,30.00
2019-04-16T08:53:49.541Z,30.00
2019-04-16T08:56:23.466Z,30.00
2019-04-16T08:59:00.633Z,30.00
2019-04-16T09:01:33.522Z,30.00
2019-04-16T09:04:07.489Z,29.90
2019-04-16T09:06:38.790Z,29.90
2019-04-16T09:09:40.402Z,29.90
2019-04-16T09:12:18.252Z,29.90
2019-04-16T09:14:56.629Z,29.90
2019-04-16T09:17:52.625Z,29.90
2019-04-16T09:20:34.706Z,29.90
2019-04-16T09:23:06.231Z,29.90
2019-04-16T09:26:12.050Z,29.90
2019-04-16T09:28:57.226Z,29.90
2019-04-16T09:31:55.045Z,29.90
2019-04-16T09:34:39.458Z,29.90
2019-04-16T09:37:28.670Z,29.90
2019-04-16T09:40:27.657Z,29.90
2019-04-16T09:42:58.984Z,29.90
2019-04-16T09:45:39.806Z,29.90
2019-04-16T09:48:13.555Z,29.90
2019-04-16T09:50:47.713Z,29.80
2019-04-16T09:53:17.067Z,29.90
2019-04-16T09:55:50.522Z,29.80
2019-04-16T09:58:26.115Z,29.80
2019-04-16T10:01:09.241Z,29.80
2019-04-16T10:03:41.616Z,29.80
2019-04-16T10:06:13.775Z,29.90
2019-04-16T10:08:45.650Z,29.90
2019-04-16T10:11:18.522Z,29.80
2019-04-16T10:13:49.358Z,29.90
2019-04-16T10:16:23.991Z,29.90
2019-04-16T10:18:58.927Z,29.90
2019-04-16T10:21:31.017Z,29.80
2019-04-16T10:24:42.409Z,29.80
2019-04-16T10:27:19.456Z,29.90
2019-04-16T10:29:51.944Z,29.80
2019-04-16T10:32:23.446Z,29.80
2019-04-16T10:35:01.593Z,29.80
2019-04-16T10:37:35.342Z,29.80
2019-04-16T10:40:35.082Z,29.80
2019-04-16T10:43:24.949Z,29.80
2019-04-16T10:46:17.439Z,29.80
2019-04-16T10:49:21.528Z,29.80
2019-04-16T10:52:13.126Z,29.80
2019-04-16T10:54:55.995Z,29.80
2019-04-16T10:57:47.034Z,29.80
2019-04-16T11:00:36.814Z,29.80
2019-04-16T11:03:28.661Z,29.80
2019-04-16T11:06:06.627Z,29.80
2019-04-16T11:08:39.854Z,29.80
2019-04-16T11:11:10.748Z,29.80
2019-04-16T11:13:59.263Z,29.80
2019-04-16T11:16:19.857Z,29.80
2019-04-16T11:18:56.163Z,29.80
2019-04-16T11:21:33.196Z,29.80
2019-04-16T11:24:06.375Z,29.70
2019-04-16T11:26:36.151Z,29.80
2019-04-16T11:29:09.456Z,29.70
2019-04-16T11:31:42.458Z,29.70
2019-04-16T11:34:15.238Z,29.70
2019-04-16T11:36:46.593Z,29.70
2019-04-16T11:39:20.612Z,29.70
2019-04-16T11:41:51.965Z,29.70
2019-04-16T11:44:23.061Z,29.70
2019-04-16T11:46:56.993Z,29.70
2019-04-16T11:49:27.831Z,29.70
2019-04-16T11:52:00.782Z,29.70
2019-04-16T11:54:32.276Z,29.70
2019-04-16T11:57:08.251Z,29.70
2019-04-16T11:59:41.001Z,29.70
2019-04-16T12:02:38.635Z,29.60
2019-04-16T12:05:22.110Z,29.70
2019-04-16T12:08:10.934Z,29.70
2019-04-16T12:11:13.668Z,29.60
2019-04-16T12:14:10.251Z,29.70
2019-04-16T12:16:57.596Z,29.60
2019-04-16T12:20:03.781Z,29.70
2019-04-16T12:22:43.941Z,29.60
2019-04-16T12:25:33.988Z,29.70
2019-04-16T12:28:29.468Z,29.70
2019-04-16T12:31:20.152Z,29.70
2019-04-16T12:33:59.674Z,29.70
2019-04-16T12:36:52.946Z,29.70
2019-04-16T12:39:55.470Z,29.70
2019-04-16T12:42:42.329Z,29.70
2019-04-16T12:45:32.305Z,29.70
2019-04-16T12:48:24.754Z,29.70
2019-04-16T12:51:09.298Z,29.70
2019-04-16T12:54:03.895Z,29.70
2019-04-16T12:56:53.054Z,29.70
2019-04-16T12:59:42.197Z,29.60
2019-04-16T13:02:44.859Z,29.60
2019-04-16T13:05:44.443Z,29.70
2019-04-16T13:08:33.267Z,29.70
2019-04-16T13:11:28.367Z,30.30
2019-04-16T13:14:17.351Z,30.70
2019-04-16T13:17:19.509Z,31.00
2019-04-16T13:20:15.959Z,31.10
2019-04-16T13:22:51.586Z,31.00
2019-04-16T13:25:29.490Z,31.20
2019-04-16T13:28:00.680Z,31.00
2019-04-16T13:30:33.968Z,31.10
2019-04-16T13:33:06.071Z,31.20
2019-04-16T13:35:41.483Z,31.10
2019-04-16T13:38:16.952Z,31.10
2019-04-16T13:40:53.177Z,31.30
2019-04-16T13:43:33.758Z,31.50
2019-04-16T13:46:07.121Z,31.30
2019-04-16T13:49:07.884Z,31.20
2019-04-16T13:51:47.764Z,31.20
2019-04-16T13:54:28.099Z,31.50
2019-04-16T13:57:09.940Z,31.60
2019-04-16T14:00:04.690Z,31.80
2019-04-16T14:02:42.768Z,31.60
2019-04-16T14:05:16.704Z,31.40
2019-04-16T14:07:49.580Z,31.40
2019-04-16T14:10:22.169Z,31.80
2019-04-16T14:12:54.417Z,31.60
2019-04-16T14:15:32.122Z,31.80
2019-04-16T14:18:00.795Z,31.60
2019-04-16T14:20:31.538Z,31.70
2019-04-16T14:23:02.899Z,31.70
2019-04-16T14:25:33.531Z,31.70
2019-04-16T14:28:04.540Z,31.60
2019-04-16T14:30:42.676Z,31.70
2019-04-16T14:33:20.000Z,31.70
2019-04-16T14:35:51.883Z,31.70
2019-04-16T14:38:29.429Z,31.80
2019-04-16T14:41:04.102Z,31.80
2019-04-16T14:43:43.999Z,31.90
2019-04-16T14:46:18.361Z,32.10
2019-04-16T14:48:48.739Z,32.30
2019-04-16T14:51:22.535Z,32.20
2019-04-16T14:54:20.931Z,32.20
2019-04-16T14:56:53.881Z,32.30
2019-04-16T14:59:35.140Z,32.40
2019-04-16T15:02:23.313Z,32.60
2019-04-16T15:05:15.783Z,32.60
2019-04-16T15:08:01.508Z,32.80
2019-04-16T15:10:53.479Z,32.80
2019-04-16T15:13:33.935Z,32.80
2019-04-16T15:16:21.367Z,32.90
2019-04-16T15:19:26.187Z,32.80
2019-04-16T15:22:14.925Z,32.80
2019-04-16T15:25:04.808Z,32.80
2019-04-16T15:28:05.103Z,32.80
2019-04-16T15:31:00.668Z,32.90
2019-04-16T15:33:53.783Z,32.90
2019-04-16T15:36:43.442Z,33.00
2019-04-16T15:39:36.412Z,33.10
2019-04-16T15:42:31.956Z,33.20
2019-04-16T15:45:09.133Z,33.40
2019-04-16T15:48:05.271Z,33.20
2019-04-16T15:50:45.388Z,33.30
2019-04-16T15:53:44.067Z,33.30
2019-04-16T15:56:40.314Z,33.30
2019-04-16T15:59:18.936Z,33.30
2019-04-16T16:02:08.508Z,33.50
2019-04-16T16:04:58.842Z,33.50
2019-04-16T16:07:34.492Z,33.80
2019-04-16T16:10:14.804Z,33.70
2019-04-16T16:12:45.976Z,33.80
2019-04-16T16:15:17.605Z,34.50
2019-04-16T16:17:49.475Z,33.70
2019-04-16T16:20:20.855Z,33.90
2019-04-16T16:22:54.604Z,33.80
2019-04-16T16:25:25.569Z,33.80
2019-04-16T16:27:56.305Z,33.90
2019-04-16T16:30:35.210Z,33.90
2019-04-16T16:33:06.609Z,33.90
2019-04-16T16:35:40.873Z,33.80
2019-04-16T16:38:15.094Z,33.80
2019-04-16T16:40:49.472Z,33.80
2019-04-16T16:43:18.866Z,33.80
2019-04-16T16:46:04.196Z,33.80
2019-04-16T16:48:39.020Z,34.00
2019-04-16T16:51:14.754Z,33.90
2019-04-16T16:54:12.266Z,33.80
2019-04-16T16:57:03.508Z,33.90
2019-04-16T16:59:42.884Z,34.00
2019-04-16T17:02:32.104Z,34.00
2019-04-16T17:05:04.561Z,33.90
2019-04-16T17:07:37.059Z,34.00
2019-04-16T17:10:07.852Z,34.00
2019-04-16T17:12:38.788Z,34.70
2019-04-16T17:15:09.577Z,34.00
2019-04-16T17:17:40.634Z,34.00
2019-04-16T17:20:11.537Z,34.00
2019-04-16T17:22:44.649Z,34.10
2019-04-16T17:25:15.521Z,34.00
2019-04-16T17:27:51.608Z,34.20
2019-04-16T17:30:22.720Z,34.40
2019-04-16T17:32:55.532Z,34.40
2019-04-16T17:35:26.850Z,34.70
2019-04-16T17:38:01.587Z,35.00
2019-04-16T17:40:38.768Z,34.90
2019-04-16T17:43:19.436Z,34.90
2019-04-16T17:46:09.525Z,35.00
2019-04-16T17:49:11.078Z,35.00
2019-04-16T17:52:00.895Z,35.00
2019-04-16T17:54:36.414Z,34.80
2019-04-16T17:57:23.179Z,34.80
2019-04-16T18:00:00.797Z,34.80
2019-04-16T18:02:55.913Z,34.90
2019-04-16T18:05:46.906Z,35.10
2019-04-16T18:08:33.962Z,35.10
2019-04-16T18:11:29.549Z,35.10
2019-04-16T18:14:11.351Z,35.20
2019-04-16T18:16:54.215Z,35.20
2019-04-16T18:19:41.860Z,35.10
2019-04-16T18:22:44.891Z,35.10
2019-04-16T18:25:32.307Z,35.20
2019-04-16T18:28:09.423Z,35.10
2019-04-16T18:31:09.673Z,35.00
2019-04-16T18:34:01.581Z,35.00
2019-04-16T18:36:36.574Z,35.10
2019-04-16T18:39:37.113Z,35.30
2019-04-16T18:42:20.901Z,35.30
2019-04-16T18:45:25.981Z,35.50
2019-04-16T18:48:12.166Z,35.50
2019-04-16T18:50:37.897Z,35.50
2019-04-16T18:53:10.710Z,35.60
2019-04-16T18:55:41.750Z,35.60
2019-04-16T18:58:13.442Z,35.00
2019-04-16T19:00:51.472Z,35.70
2019-04-16T19:03:27.129Z,35.70
2019-04-16T19:05:58.099Z,35.70
2019-04-16T19:08:44.261Z,35.70
2019-04-16T19:11:23.194Z,35.70
2019-04-16T19:14:10.261Z,35.70
2019-04-16T19:16:44.157Z,36.40
2019-04-16T19:19:15.616Z,35.80
2019-04-16T19:21:51.299Z,35.80
2019-04-16T19:24:24.571Z,35.80
2019-04-16T19:27:05.146Z,35.90
2019-04-16T19:29:35.904Z,35.90
2019-04-16T19:32:08.992Z,35.90
2019-04-16T19:34:41.185Z,36.00
2019-04-16T19:37:17.680Z,36.00
2019-04-16T19:39:49.044Z,36.00
2019-04-16T19:42:25.662Z,35.80
2019-04-16T19:44:55.316Z,35.70
2019-04-16T19:47:28.794Z,35.60
2019-04-16T19:50:00.462Z,35.60
2019-04-16T19:52:33.008Z,35.50
2019-04-16T19:55:12.666Z,35.50
2019-04-16T19:58:11.761Z,35.60
2019-04-16T20:00:46.813Z,35.90
2019-04-16T20:03:30.159Z,36.00
2019-04-16T20:06:02.048Z,35.90
2019-04-16T20:08:39.470Z,35.80
2019-04-16T20:11:06.278Z,35.80
2019-04-16T20:13:37.467Z,35.80
2019-04-16T20:16:11.082Z,35.90
2019-04-16T20:18:51.292Z,35.80
2019-04-16T20:21:19.049Z,35.80
2019-04-16T20:24:02.139Z,35.80
2019-04-16T20:26:47.683Z,35.80
2019-04-16T20:30:05.488Z,36.10
2019-04-16T20:32:42.171Z,36.10
2019-04-16T20:35:24.162Z,36.10
2019-04-16T20:37:55.701Z,36.10
2019-04-16T20:40:27.692Z,36.20
2019-04-16T20:43:00.115Z,36.40
2019-04-16T20:45:32.494Z,36.40
2019-04-16T20:48:03.210Z,36.10
2019-04-16T20:50:34.989Z,36.00
2019-04-16T20:53:30.292Z,36.00
2019-04-16T20:56:01.302Z,35.80
2019-04-16T20:58:34.870Z,35.80
2019-04-16T21:01:05.736Z,35.80
2019-04-16T21:03:40.211Z,35.80
2019-04-16T21:06:11.050Z,35.80
2019-04-16T21:08:44.482Z,35.80
2019-04-16T21:11:16.356Z,35.70
2019-04-16T21:13:50.083Z,36.10
2019-04-16T21:16:23.229Z,35.70
2019-04-16T21:18:54.285Z,35.70
2019-04-16T21:21:27.205Z,35.70
2019-04-16T21:23:58.489Z,35.00
2019-04-16T21:26:29.883Z,35.70
2019-04-16T21:29:08.366Z,35.70
2019-04-16T21:31:47.741Z,35.80
2019-04-16T21:34:43.242Z,35.80
2019-04-16T21:37:31.900Z,35.90
2019-04-16T21:40:06.221Z,35.90
2019-04-16T21:42:39.135Z,35.80
2019-04-16T21:45:15.908Z,35.90
2019-04-16T21:47:59.248Z,36.00
2019-04-16T21:50:47.531Z,35.90
2019-04-16T21:53:24.683Z,35.90
2019-04-16T21:55:59.874Z,35.80
2019-04-16T21:58:30.302Z,35.90
2019-04-16T22:01:15.583Z,35.90
2019-04-16T22:03:49.849Z,35.90
2019-04-16T22:06:22.249Z,35.90
2019-04-16T22:08:55.953Z,35.90
2019-04-16T22:11:29.602Z,35.90
2019-04-16T22:14:00.269Z,35.90
2019-04-16T22:16:31.858Z,35.90
2019-04-16T22:19:04.508Z,35.90
2019-04-16T22:21:35.385Z,35.90
2019-04-16T22:24:08.155Z,35.90
2019-04-16T22:26:38.885Z,35.90
2019-04-16T22:29:15.371Z,35.80
2019-04-16T22:31:43.340Z,35.90
2019-04-16T22:34:14.180Z,35.90
2019-04-16T22:36:45.614Z,35.90
2019-04-16T22:39:27.242Z,35.80
2019-04-16T22:42:04.570Z,35.90
2019-04-16T22:44:49.942Z,35.80
2019-04-16T22:47:25.839Z,35.90
2019-04-16T22:50:14.062Z,36.60
2019-04-16T22:52:34.530Z,35.90
2019-04-16T22:55:05.318Z,35.90
2019-04-16T22:57:35.598Z,35.90
2019-04-16T23:00:12.843Z,35.80
2019-04-16T23:02:48.254Z,35.80
2019-04-16T23:05:20.830Z,35.80
2019-04-16T23:07:54.456Z,35.80
2019-04-16T23:10:25.167Z,35.80
2019-04-16T23:13:00.695Z,35.90
2019-04-16T23:15:30.522Z,35.90
2019-04-16T23:18:03.227Z,35.90
2019-04-16T23:20:38.507Z,35.90
2019-04-16T23:23:11.625Z,35.90
2019-04-16T23:25:42.177Z,35.90
2019-04-16T23:28:15.618Z,35.90
2019-04-16T23:30:51.231Z,36.00
2019-04-16T23:33:26.121Z,35.90
2019-04-16T23:35:58.545Z,35.90
2019-04-16T23:38:31.606Z,35.90
2019-04-16T23:41:04.519Z,35.90
2019-04-16T23:43:47.566Z,35.90
2019-04-16T23:46:42.719Z,35.90
2019-04-16T23:49:46.013Z,36.00
2019-04-16T23:52:23.565Z,36.40
2019-04-16T23:55:05.477Z,35.90
2019-04-16T23:57:57.506Z,35.90
